Time;durP1;ratioP1;P1;durP2;ratioP2;P2;SDS_P1;SDS_P2;PMS_P1;PMS_P2;Temp;Humidity;BMP_temperature;BMP_pressure;BME280_temperature;BME280_humidity;BME280_pressure;Samples;Min_cycle;Max_cycle;Signal;HPM_P1;HPM_P2
2022/03/28 00:01:09;;;;;;;;;;;;;;;4.89;38.92;99200.90;1653458;85;26062;-82
2022/03/28 00:03:35;;;;;;;;;;;;;;;4.90;39.04;99199.16;1651592;85;24425;-82
2022/03/28 00:06:02;;;;;;;;;;;;;;;5.00;39.18;99188.41;1645885;85;20607;-82
2022/03/28 00:08:28;;;;;;;;;;;;;;;5.04;39.25;99193.02;1655147;85;25506;-81
2022/03/28 00:10:54;;;;;;;;;;;;;;;4.99;39.32;99195.78;1672561;84;22057;-81
2022/03/28 00:13:21;;;;;;;;;;;;;;;4.95;39.37;99194.66;1663434;85;26041;-82
2022/03/28 00:15:49;;;;;;;;;;;;;;;4.92;39.46;99187.81;1644792;85;24375;-81
2022/03/28 00:18:15;;;;;;;;;;;;;;;4.89;39.57;99183.20;1675772;85;20476;-82
2022/03/28 00:20:41;;;;;;;;;;;;;;;4.87;39.66;99191.47;1673117;85;20336;-83
2022/03/28 00:23:07;;;;;;;;;;;;;;;4.79;39.75;99193.05;1664122;85;22033;-83
2022/03/28 00:25:35;;;;;;;;;;;;;;;4.67;39.84;99191.31;1667563;85;25968;-82
2022/03/28 00:28:01;;;;;;;;;;;;;;;4.55;39.94;99186.09;1667052;85;24469;-83
2022/03/28 00:30:28;;;;;;;;;;;;;;;4.49;40.06;99190.17;1673100;85;20467;-82
2022/03/28 00:32:54;;;;;;;;;;;;;;;4.42;40.18;99188.23;1672643;85;24823;-83
2022/03/28 00:35:21;;;;;;;;;;;;;;;4.42;40.32;99186.94;1678486;84;20779;-83
2022/03/28 00:37:48;;;;;;;;;;;;;;;4.48;40.48;99181.55;1675229;85;25961;-82
2022/03/28 00:40:16;;;;;;;;;;;;;;;4.54;40.58;99176.16;1668553;85;24630;-83
2022/03/28 00:42:43;;;;;;;;;;;;;;;4.60;40.70;99165.59;1650955;85;20220;-83
2022/03/28 00:45:09;;;;;;;;;;;;;;;4.66;40.80;99167.58;1674542;85;24817;-82
2022/03/28 00:47:36;;;;;;;;;;;;;;;4.71;40.88;99157.89;1663473;85;21964;-82
2022/03/28 00:50:02;;;;;;;;;;;;;;;4.73;40.96;99158.25;1667220;85;25981;-83
2022/03/28 00:52:28;;;;;;;;;;;;;;;4.76;41.03;99147.76;1669986;85;24366;-83
2022/03/28 00:54:55;;;;;;;;;;;;;;;4.78;41.13;99147.27;1679599;85;20359;-83
2022/03/28 00:57:21;;;;;;;;;;;;;;;4.56;41.22;99151.05;1668637;85;24744;-84
2022/03/28 00:59:47;;;;;;;;;;;;;;;4.41;41.28;99146.84;1670633;85;20248;-81
2022/03/28 01:02:13;;;;;;;;;;;;;;;4.29;41.40;99137.73;1675699;85;25979;-84
2022/03/28 01:04:39;;;;;;;;;;;;;;;4.28;41.53;99137.77;1664144;85;24591;-83
2022/03/28 01:07:06;;;;;;;;;;;;;;;4.38;41.63;99136.56;1674845;85;20686;-82
2022/03/28 01:09:33;;;;;;;;;;;;;;;4.51;41.72;99130.08;1664031;85;24888;-81
2022/03/28 01:11:59;;;;;;;;;;;;;;;4.61;41.79;99128.41;1668513;85;22010;-83
2022/03/28 01:14:30;;;;;;;;;;;;;;;4.65;41.84;99122.66;1671291;85;25879;-81
2022/03/28 01:19:41;;;;;;;;;;;;;;;4.64;41.93;99119.22;1662029;85;20266;-81
2022/03/28 01:22:07;;;;;;;;;;;;;;;4.62;41.98;99120.19;1674313;85;24899;-80
2022/03/28 01:24:34;;;;;;;;;;;;;;;4.58;42.06;99119.42;1660694;85;21935;-83
2022/03/28 01:27:01;;;;;;;;;;;;;;;4.53;42.11;99117.89;1667827;85;26052;-81
2022/03/28 01:29:27;;;;;;;;;;;;;;;4.48;42.16;99107.69;1688872;84;24454;-80
2022/03/28 01:31:53;;;;;;;;;;;;;;;4.47;42.22;99109.87;1688007;84;20309;-81
2022/03/28 01:34:20;;;;;;;;;;;;;;;4.48;42.29;99108.14;1689328;84;20221;-80
2022/03/28 01:36:47;;;;;;;;;;;;;;;4.46;42.35;99100.44;1690157;83;21950;-81
2022/03/28 01:39:17;;;;;;;;;;;;;;;4.46;42.43;99097.84;1694224;84;26023;-81
2022/03/28 01:41:44;;;;;;;;;;;;;;;4.44;42.48;99089.27;1690490;84;24438;-81
2022/03/28 01:44:10;;;;;;;;;;;;;;;4.42;42.54;99100.13;1690107;84;20212;-81
2022/03/28 01:46:40;;;;;;;;;;;;;;;4.42;42.62;99094.13;1690795;84;24755;-81
2022/03/28 01:49:06;;;;;;;;;;;;;;;4.42;42.68;99098.83;1689136;84;21945;-81
2022/03/28 01:51:32;;;;;;;;;;;;;;;4.42;42.75;99100.60;1689815;84;26032;-81
2022/03/28 01:53:59;;;;;;;;;;;;;;;4.44;42.81;99106.55;1691242;83;24396;-82
2022/03/28 01:56:25;;;;;;;;;;;;;;;4.44;42.86;99107.41;1688741;83;20249;-82
2022/03/28 01:58:52;;;;;;;;;;;;;;;4.46;42.91;99103.03;1689664;84;24890;-82
2022/03/28 02:01:20;;;;;;;;;;;;;;;4.47;42.98;99095.63;1688912;83;22619;-81
2022/03/28 02:03:46;;;;;;;;;;;;;;;4.48;43.05;99093.44;1686982;84;26041;-82
2022/03/28 02:06:12;;;;;;;;;;;;;;;4.49;43.12;99099.47;1681266;83;20244;-82
2022/03/28 02:08:38;;;;;;;;;;;;;;;4.49;43.19;99099.02;1667020;85;20754;-83
2022/03/28 02:11:04;;;;;;;;;;;;;;;4.48;43.23;99092.59;1668406;85;20586;-83
2022/03/28 02:13:30;;;;;;;;;;;;;;;4.47;43.27;99089.14;1673698;85;20241;-83
2022/03/28 02:15:56;;;;;;;;;;;;;;;4.45;43.31;99087.52;1667582;85;20950;-83
2022/03/28 02:18:24;;;;;;;;;;;;;;;4.41;43.37;99082.06;1676450;85;24492;-83
2022/03/28 02:20:54;;;;;;;;;;;;;;;4.40;43.42;99084.25;1679236;83;20473;-83
2022/03/28 02:23:20;;;;;;;;;;;;;;;4.40;43.49;99079.06;1675628;85;24921;-83
2022/03/28 02:25:46;;;;;;;;;;;;;;;4.43;43.54;99074.61;1673015;85;22030;-83
2022/03/28 02:28:13;;;;;;;;;;;;;;;4.44;43.58;99079.34;1675741;85;25980;-83
2022/03/28 02:30:39;;;;;;;;;;;;;;;4.43;43.61;99074.61;1682530;85;24672;-82
2022/03/28 02:33:06;;;;;;;;;;;;;;;4.40;43.64;99071.30;1679280;85;20513;-83
2022/03/28 02:35:32;;;;;;;;;;;;;;;4.39;43.70;99069.14;1695395;83;24790;-82
2022/03/28 02:38:01;;;;;;;;;;;;;;;4.39;43.74;99067.85;1692581;83;22112;-82
2022/03/28 02:40:26;;;;;;;;;;;;;;;4.38;43.76;99062.27;1690484;84;26724;-82
2022/03/28 02:42:52;;;;;;;;;;;;;;;4.35;43.80;99066.72;1696106;83;24406;-82
2022/03/28 02:45:18;;;;;;;;;;;;;;;4.29;43.83;99053.53;1690888;84;20798;-81
2022/03/28 02:47:44;;;;;;;;;;;;;;;4.29;43.88;99052.68;1693289;84;20780;-81
2022/03/28 02:50:10;;;;;;;;;;;;;;;4.28;43.91;99051.83;1691988;84;22027;-82
2022/03/28 02:52:36;;;;;;;;;;;;;;;4.24;43.96;99048.11;1696916;83;25984;-83
2022/03/28 02:55:02;;;;;;;;;;;;;;;4.20;44.00;99050.78;1692064;83;24494;-82
2022/03/28 02:57:28;;;;;;;;;;;;;;;4.16;44.06;99044.47;1680618;83;20241;-83
2022/03/28 02:59:54;;;;;;;;;;;;;;;4.17;44.09;99044.88;1683735;83;20245;-84
2022/03/28 03:02:22;;;;;;;;;;;;;;;4.16;44.15;99040.14;1656521;85;20757;-83
2022/03/28 03:04:48;;;;;;;;;;;;;;;4.14;44.19;99039.37;1661384;84;26624;-83
2022/03/28 03:07:14;;;;;;;;;;;;;;;4.13;44.24;99040.27;1657234;85;20298;-82
2022/03/28 03:09:40;;;;;;;;;;;;;;;4.13;44.29;99026.02;1678530;83;20790;-82
2022/03/28 03:12:06;;;;;;;;;;;;;;;4.12;44.34;99032.53;1657156;85;20311;-83
2022/03/28 03:14:33;;;;;;;;;;;;;;;4.14;44.40;99035.48;1656705;84;22658;-83
2022/03/28 03:16:59;;;;;;;;;;;;;;;4.17;44.43;99037.11;1637542;85;25885;-81
2022/03/28 03:19:25;;;;;;;;;;;;;;;4.17;44.49;99031.48;1625760;85;25325;-81
2022/03/28 03:21:51;;;;;;;;;;;;;;;4.22;44.52;99036.50;1675687;83;20563;-81
2022/03/28 03:24:17;;;;;;;;;;;;;;;4.15;44.56;99018.17;1678040;83;24910;-82
2022/03/28 03:26:43;;;;;;;;;;;;;;;4.29;44.61;99028.07;1686967;83;21967;-81
2022/03/28 03:29:10;;;;;;;;;;;;;;;4.36;44.63;99032.14;1688911;84;26303;-82
2022/03/28 03:31:36;;;;;;;;;;;;;;;4.40;44.65;99030.68;1688076;84;20277;-82
2022/03/28 03:34:03;;;;;;;;;;;;;;;4.42;44.66;99030.16;1689321;84;20339;-82
2022/03/28 03:36:29;;;;;;;;;;;;;;;4.45;44.68;99024.88;1669068;84;24849;-82
2022/03/28 03:38:55;;;;;;;;;;;;;;;4.48;44.70;99032.98;1666975;84;21939;-81
2022/03/28 03:41:21;;;;;;;;;;;;;;;4.45;44.72;99033.11;1686970;84;21177;-81
2022/03/28 03:43:47;;;;;;;;;;;;;;;4.43;44.73;99037.03;1688602;83;24352;-83
2022/03/28 03:46:13;;;;;;;;;;;;;;;4.47;44.72;99035.20;1687187;84;20178;-82
2022/03/28 03:48:41;;;;;;;;;;;;;;;4.48;44.71;99031.23;1688492;84;25007;-82
2022/03/28 03:51:07;;;;;;;;;;;;;;;4.50;44.73;99031.19;1686128;84;22150;-82
2022/03/28 03:53:34;;;;;;;;;;;;;;;4.52;44.74;99030.70;1687435;84;25948;-83
2022/03/28 03:56:00;;;;;;;;;;;;;;;4.53;44.74;99023.30;1689202;84;24389;-83
2022/03/28 03:58:26;;;;;;;;;;;;;;;4.51;44.74;99022.08;1662700;84;20331;-82
2022/03/28 04:00:52;;;;;;;;;;;;;;;4.50;44.76;99020.38;1673539;85;24658;-82
2022/03/28 04:03:20;;;;;;;;;;;;;;;4.47;44.77;99015.29;1686694;84;21701;-83
2022/03/28 04:05:46;;;;;;;;;;;;;;;4.46;44.78;99013.62;1694650;84;26769;-82
2022/03/28 04:08:12;;;;;;;;;;;;;;;4.43;44.76;99015.02;1685528;84;20292;-82
2022/03/28 04:10:38;;;;;;;;;;;;;;;4.41;44.77;99012.95;1689076;83;20510;-82
2022/03/28 04:13:05;;;;;;;;;;;;;;;4.40;44.77;99018.17;1691704;83;24808;-82
2022/03/28 04:15:30;;;;;;;;;;;;;;;4.35;44.79;99017.05;1683996;83;21887;-82
2022/03/28 04:17:56;;;;;;;;;;;;;;;4.34;44.82;99018.38;1691202;84;26031;-82
2022/03/28 04:20:23;;;;;;;;;;;;;;;4.31;44.82;99020.63;1690532;83;24428;-81
2022/03/28 04:22:51;;;;;;;;;;;;;;;4.29;44.82;99014.67;1687522;83;20481;-82
2022/03/28 04:25:17;;;;;;;;;;;;;;;4.24;44.86;99015.28;1682736;83;25839;-81
2022/03/28 04:27:43;;;;;;;;;;;;;;;4.24;44.88;99010.55;1653562;85;22051;-82
2022/03/28 04:30:12;;;;;;;;;;;;;;;4.22;44.92;99009.30;1673452;83;20996;-82
2022/03/28 04:32:38;;;;;;;;;;;;;;;4.20;44.92;99009.79;1700870;82;24652;-81
2022/03/28 04:35:05;;;;;;;;;;;;;;;4.19;44.96;99006.38;1700248;83;20234;-82
2022/03/28 04:37:32;;;;;;;;;;;;;;;4.18;44.98;99005.98;1700671;83;24846;-81
2022/03/28 04:39:58;;;;;;;;;;;;;;;4.17;45.02;99002.98;1700926;83;22618;-82
2022/03/28 04:42:24;;;;;;;;;;;;;;;4.16;45.03;99000.00;1698305;84;26183;-82
2022/03/28 04:44:50;;;;;;;;;;;;;;;4.18;45.05;98999.95;1699753;83;24380;-82
2022/03/28 04:47:17;;;;;;;;;;;;;;;4.17;45.11;99000.39;1703765;83;20469;-83
2022/03/28 04:49:43;;;;;;;;;;;;;;;4.14;45.13;98999.22;1698222;83;24802;-82
2022/03/28 04:52:09;;;;;;;;;;;;;;;4.17;45.15;98999.10;1699632;83;20437;-82
2022/03/28 04:54:36;;;;;;;;;;;;;;;4.15;45.19;98993.12;1703241;83;21037;-82
2022/03/28 04:57:04;;;;;;;;;;;;;;;4.15;45.21;98992.27;1699910;83;25750;-82
2022/03/28 04:59:30;;;;;;;;;;;;;;;4.12;45.25;98991.95;1699291;83;20312;-83
2022/03/28 05:01:57;;;;;;;;;;;;;;;4.08;45.29;98992.11;1700153;83;24791;-82
2022/03/28 05:04:23;;;;;;;;;;;;;;;4.06;45.34;98990.02;1698901;83;21993;-82
2022/03/28 05:06:49;;;;;;;;;;;;;;;4.07;45.41;98999.48;1700065;84;21104;-83
2022/03/28 05:09:15;;;;;;;;;;;;;;;4.12;45.46;98993.23;1698587;83;20256;-82
2022/03/28 05:11:42;;;;;;;;;;;;;;;4.18;45.54;98989.14;1696279;83;20218;-81
2022/03/28 05:14:08;;;;;;;;;;;;;;;4.25;45.61;98992.37;1696917;83;24857;-81
2022/03/28 05:16:35;;;;;;;;;;;;;;;4.28;45.65;98987.06;1677931;83;20880;-82
2022/03/28 05:19:01;;;;;;;;;;;;;;;4.33;45.70;98992.92;1673863;84;26036;-82
2022/03/28 05:21:27;;;;;;;;;;;;;;;4.40;45.72;98990.52;1692295;83;24510;-81
2022/03/28 05:23:53;;;;;;;;;;;;;;;4.51;45.76;99001.79;1696559;83;20500;-82
2022/03/28 05:26:19;;;;;;;;;;;;;;;4.60;45.80;98997.55;1699411;83;20304;-82
2022/03/28 05:28:46;;;;;;;;;;;;;;;4.67;45.81;98991.25;1700650;83;21960;-82
2022/03/28 05:31:12;;;;;;;;;;;;;;;4.81;45.87;98993.31;1697655;83;26000;-82
2022/03/28 05:33:39;;;;;;;;;;;;;;;4.89;45.89;98993.44;1699894;82;24436;-83
2022/03/28 05:36:07;;;;;;;;;;;;;;;4.97;45.92;98990.53;1697731;81;20551;-81
2022/03/28 05:38:33;;;;;;;;;;;;;;;5.07;45.93;98991.89;1700862;83;24794;-81
2022/03/28 05:40:59;;;;;;;;;;;;;;;5.14;45.92;98986.84;1684712;83;21968;-81
2022/03/28 05:43:26;;;;;;;;;;;;;;;5.22;45.89;98991.29;1700232;83;26078;-81
2022/03/28 05:45:53;;;;;;;;;;;;;;;5.34;45.89;98988.66;1686628;84;24496;-82
2022/03/28 05:48:21;;;;;;;;;;;;;;;5.40;45.88;98985.34;1694947;84;20226;-81
2022/03/28 05:50:49;;;;;;;;;;;;;;;5.46;45.91;98983.80;1695774;82;24778;-82
2022/03/28 05:53:15;;;;;;;;;;;;;;;5.48;45.89;98987.20;1697911;83;21995;-82
2022/03/28 05:55:42;;;;;;;;;;;;;;;5.55;45.90;98985.66;1678481;83;26121;-82
2022/03/28 05:58:09;;;;;;;;;;;;;;;5.64;45.90;98990.01;1692934;83;24446;-82
2022/03/28 06:00:36;;;;;;;;;;;;;;;5.71;45.90;98984.11;1690741;83;20484;-82
2022/03/28 06:03:02;;;;;;;;;;;;;;;5.80;45.92;98987.16;1692773;84;24845;-82
2022/03/28 06:05:28;;;;;;;;;;;;;;;5.89;45.95;98987.28;1696027;84;22048;-82
2022/03/28 06:07:54;;;;;;;;;;;;;;;5.97;45.97;98981.30;1678988;84;26600;-82
2022/03/28 06:10:24;;;;;;;;;;;;;;;6.03;45.93;98981.03;1695113;83;24422;-82
2022/03/28 06:12:48;;;;;;;;;;;;;;;6.10;45.96;98983.77;1699230;82;20606;-83
2022/03/28 06:15:15;;;;;;;;;;;;;;;6.20;45.99;98972.06;1705008;83;24891;-83
2022/03/28 06:17:43;;;;;;;;;;;;;;;6.28;45.96;98980.36;1699369;83;22093;-84
2022/03/28 06:20:10;;;;;;;;;;;;;;;6.37;45.98;98978.28;1698784;84;26747;-83
2022/03/28 06:22:36;;;;;;;;;;;;;;;6.44;46.02;98977.08;1701986;84;24544;-83
2022/03/28 06:25:03;;;;;;;;;;;;;;;6.52;46.00;98974.98;1699593;83;20618;-83
2022/03/28 06:27:29;;;;;;;;;;;;;;;6.64;46.02;98979.64;1697902;84;24731;-82
2022/03/28 06:29:55;;;;;;;;;;;;;;;6.74;46.02;98967.91;1701757;84;22035;-83
2022/03/28 06:32:22;;;;;;;;;;;;;;;6.84;46.00;98967.86;1699410;84;26200;-84
2022/03/28 06:34:48;;;;;;;;;;;;;;;6.94;46.00;98961.31;1703201;83;25842;-84
2022/03/28 06:37:15;;;;;;;;;;;;;;;7.06;46.00;98960.75;1696877;84;20479;-84
2022/03/28 06:39:41;;;;;;;;;;;;;;;7.21;46.01;98959.63;1701346;83;25521;-84
2022/03/28 06:42:10;;;;;;;;;;;;;;;7.32;46.03;98958.19;1701129;84;22039;-83
2022/03/28 06:44:36;;;;;;;;;;;;;;;7.46;46.03;98957.09;1704336;83;21093;-83
2022/03/28 06:47:02;;;;;;;;;;;;;;;7.59;45.98;98949.48;1678387;83;20248;-82
2022/03/28 06:49:29;;;;;;;;;;;;;;;7.72;45.98;98942.77;1698729;83;20457;-83
2022/03/28 06:51:56;;;;;;;;;;;;;;;7.82;45.97;98946.59;1698515;84;24805;-82
2022/03/28 06:54:22;;;;;;;;;;;;;;;7.92;45.98;98946.50;1681670;83;21985;-83
2022/03/28 06:56:48;;;;;;;;;;;;;;;8.04;45.98;98942.88;1700478;84;26109;-83
2022/03/28 06:59:14;;;;;;;;;;;;;;;8.12;45.94;98936.83;1706023;83;24518;-82
2022/03/28 07:01:41;;;;;;;;;;;;;;;8.24;45.88;98942.23;1706748;83;20268;-82
2022/03/28 07:04:10;;;;;;;;;;;;;;;8.38;45.83;98946.31;1696215;84;25745;-81
2022/03/28 07:06:35;;;;;;;;;;;;;;;8.49;45.77;98944.44;1704254;83;21975;-81
2022/03/28 07:09:04;;;;;;;;;;;;;;;8.62;45.72;98933.70;1696558;84;26116;-81
2022/03/28 07:11:29;;;;;;;;;;;;;;;8.77;45.61;98941.19;1703785;83;24599;-81
2022/03/28 07:13:55;;;;;;;;;;;;;;;8.89;45.50;98931.36;1700918;83;20252;-82
2022/03/28 07:16:24;;;;;;;;;;;;;;;9.02;45.42;98922.39;1673916;84;21615;-82
2022/03/28 07:18:50;;;;;;;;;;;;;;;9.14;45.36;98924.33;1697807;84;21971;-82
2022/03/28 07:21:16;;;;;;;;;;;;;;;9.26;45.37;98921.48;1702312;84;25951;-81
2022/03/28 07:23:43;;;;;;;;;;;;;;;9.38;45.34;98916.88;1701927;83;24389;-81
2022/03/28 07:26:10;;;;;;;;;;;;;;;9.52;45.30;98914.30;1697452;82;20162;-81
2022/03/28 07:28:39;;;;;;;;;;;;;;;9.67;45.25;98912.10;1701255;82;24787;-82
2022/03/28 07:31:08;;;;;;;;;;;;;;;9.80;45.18;98913.08;1699785;82;22000;-82
2022/03/28 07:33:36;;;;;;;;;;;;;;;9.95;45.04;98914.77;1699013;84;26202;-81
2022/03/28 07:36:03;;;;;;;;;;;;;;;10.12;44.92;98915.53;1698586;83;25135;-81
2022/03/28 07:38:29;;;;;;;;;;;;;;;10.27;44.70;98915.48;1696371;84;20480;-81
2022/03/28 07:40:55;;;;;;;;;;;;;;;10.39;44.49;98901.66;1681454;83;25020;-81
2022/03/28 07:43:21;;;;;;;;;;;;;;;10.53;44.35;98902.09;1645351;84;22038;-82
2022/03/28 07:45:48;;;;;;;;;;;;;;;10.63;44.15;98901.08;1703067;83;20960;-81
2022/03/28 07:48:14;;;;;;;;;;;;;;;10.76;43.99;98892.80;1700778;83;24505;-81
2022/03/28 07:50:41;;;;;;;;;;;;;;;10.85;43.84;98900.94;1696472;84;20479;-81
2022/03/28 07:53:07;;;;;;;;;;;;;;;10.94;43.73;98895.58;1698451;83;24719;-81
2022/03/28 07:55:33;;;;;;;;;;;;;;;11.02;43.57;98895.09;1697429;84;22114;-81
2022/03/28 07:58:02;;;;;;;;;;;;;;;11.12;43.47;98883.08;1697102;83;26103;-82
2022/03/28 08:00:29;;;;;;;;;;;;;;;11.22;43.40;98880.23;1703278;83;25030;-82
2022/03/28 08:02:55;;;;;;;;;;;;;;;11.33;43.38;98873.34;1701742;83;20221;-82
2022/03/28 08:05:24;;;;;;;;;;;;;;;11.46;43.22;98875.13;1669683;84;20224;-82
2022/03/28 08:07:51;;;;;;;;;;;;;;;11.57;43.13;98868.24;1702709;84;21985;-82
2022/03/28 08:10:17;;;;;;;;;;;;;;;11.73;43.09;98866.77;1701195;84;26046;-81
2022/03/28 08:12:43;;;;;;;;;;;;;;;11.87;42.88;98868.00;1695226;84;24496;-82
2022/03/28 08:15:10;;;;;;;;;;;;;;;12.01;42.73;98865.27;1695713;83;20555;-82
2022/03/28 08:17:37;;;;;;;;;;;;;;;12.16;42.61;98864.19;1694771;84;25415;-82
2022/03/28 08:20:04;;;;;;;;;;;;;;;12.27;42.46;98856.91;1689999;84;22129;-81
2022/03/28 08:22:30;;;;;;;;;;;;;;;12.37;42.29;98859.26;1687069;84;26030;-82
2022/03/28 08:25:05;;;;;;;;;;;;;;;12.47;42.22;98852.88;1692382;84;23937;-82
2022/03/28 08:27:31;;;;;;;;;;;;;;;12.57;42.10;98846.02;1695435;84;20225;-82
2022/03/28 08:29:57;;;;;;;;;;;;;;;12.66;42.03;98838.79;1690788;84;25350;-82
2022/03/28 08:32:23;;;;;;;;;;;;;;;12.79;41.97;98830.41;1695348;83;21974;-82
2022/03/28 08:34:50;;;;;;;;;;;;;;;12.90;41.90;98823.89;1691806;84;26034;-83
2022/03/28 08:37:18;;;;;;;;;;;;;;;12.98;41.76;98828.59;1693307;84;25316;-83
2022/03/28 08:39:45;;;;;;;;;;;;;;;13.03;41.80;98825.16;1692847;84;20487;-83
2022/03/28 08:42:12;;;;;;;;;;;;;;;13.13;41.76;98823.55;1692370;84;24823;-83
2022/03/28 08:44:39;;;;;;;;;;;;;;;13.24;41.66;98813.09;1691247;83;22068;-82
2022/03/28 08:47:06;;;;;;;;;;;;;;;13.37;41.63;98810.36;1693514;84;25953;-82
2022/03/28 08:49:34;;;;;;;;;;;;;;;13.47;41.59;98808.73;1693354;83;24381;-82
2022/03/28 08:52:00;;;;;;;;;;;;;;;13.52;41.59;98805.75;1685757;83;20176;-83
2022/03/28 08:54:26;;;;;;;;;;;;;;;13.58;41.53;98800.84;1694636;84;20441;-82
2022/03/28 08:56:52;;;;;;;;;;;;;;;13.66;41.61;98801.11;1694501;84;21950;-82
2022/03/28 08:59:18;;;;;;;;;;;;;;;13.78;41.70;98793.59;1691319;83;25950;-81
2022/03/28 09:01:45;;;;;;;;;;;;;;;13.88;41.61;98796.82;1692970;84;24409;-81
2022/03/28 09:04:14;;;;;;;;;;;;;;;13.98;41.64;98795.98;1693704;84;20457;-81
2022/03/28 09:06:42;;;;;;;;;;;;;;;14.06;41.51;98788.82;1697110;84;24830;-82
2022/03/28 09:09:21;;;;;;;;;;;;;;;14.09;41.30;98781.98;1693208;83;22061;-81
2022/03/28 09:11:51;;;;;;;;;;;;;;;14.14;41.25;98783.77;1693124;84;26147;-82
2022/03/28 09:14:19;;;;;;;;;;;;;;;14.19;41.13;98772.41;1690730;84;25321;-81
2022/03/28 09:16:48;;;;;;;;;;;;;;;14.27;41.10;98776.59;1690669;84;20497;-82
2022/03/28 09:19:14;;;;;;;;;;;;;;;14.34;41.19;98773.00;1693082;83;24943;-81
2022/03/28 09:21:42;;;;;;;;;;;;;;;14.48;41.26;98763.53;1690926;84;22065;-82
2022/03/28 09:24:09;;;;;;;;;;;;;;;14.61;41.31;98769.02;1691625;84;25803;-81
2022/03/28 09:26:36;;;;;;;;;;;;;;;14.63;41.24;98759.18;1691824;84;25944;-81
2022/03/28 09:29:03;;;;;;;;;;;;;;;14.69;41.32;98751.73;1694282;84;20295;-81
2022/03/28 09:31:31;;;;;;;;;;;;;;;14.80;41.45;98746.43;1694203;83;24770;-82
2022/03/28 09:33:59;;;;;;;;;;;;;;;14.90;41.44;98739.44;1691752;84;21985;-82
2022/03/28 09:36:39;;;;;;;;;;;;;;;14.94;41.38;98736.92;1691821;84;26643;-82
2022/03/28 09:39:07;;;;;;;;;;;;;;;14.97;41.32;98731.38;1691605;83;24676;-82
2022/03/28 09:41:33;;;;;;;;;;;;;;;15.00;41.32;98736.42;1691534;84;20286;-82
2022/03/28 09:43:59;;;;;;;;;;;;;;;15.08;41.45;98739.23;1691000;83;24843;-82
2022/03/28 09:46:29;;;;;;;;;;;;;;;15.16;41.45;98730.22;1687818;84;20170;-82
2022/03/28 09:48:59;;;;;;;;;;;;;;;15.25;41.51;98725.48;1688187;84;25994;-82
2022/03/28 09:51:29;;;;;;;;;;;;;;;15.30;41.45;98719.34;1689738;84;25347;-82
2022/03/28 09:53:55;;;;;;;;;;;;;;;15.33;41.37;98723.02;1691747;84;20197;-82
2022/03/28 09:56:22;;;;;;;;;;;;;;;15.32;41.30;98725.33;1696668;84;24812;-82
2022/03/28 09:58:49;;;;;;;;;;;;;;;15.30;41.22;98711.42;1690577;84;21995;-82
2022/03/28 10:01:23;;;;;;;;;;;;;;;15.35;41.19;98711.03;1695241;84;26073;-82
2022/03/28 10:03:50;;;;;;;;;;;;;;;15.39;41.22;98710.63;1689868;84;25168;-82
2022/03/28 10:06:17;;;;;;;;;;;;;;;15.47;41.20;98704.23;1695515;83;20497;-82
2022/03/28 10:08:44;;;;;;;;;;;;;;;15.54;41.20;98697.16;1691809;84;24788;-82
2022/03/28 10:11:11;;;;;;;;;;;;;;;15.58;41.15;98695.91;1695590;84;21999;-82
2022/03/28 10:13:38;;;;;;;;;;;;;;;15.64;41.14;98698.03;1696972;84;26010;-82
2022/03/28 10:16:04;;;;;;;;;;;;;;;15.72;41.15;98689.79;1693898;84;24561;-82
2022/03/28 10:18:32;;;;;;;;;;;;;;;15.74;41.04;98689.66;1694950;84;20249;-82
2022/03/28 10:21:00;;;;;;;;;;;;;;;15.79;41.00;98687.45;1697311;83;24863;-82
2022/03/28 10:23:34;;;;;;;;;;;;;;;15.85;41.01;98694.36;1698157;84;22057;-82
2022/03/28 10:26:01;;;;;;;;;;;;;;;15.91;41.02;98669.23;1697478;84;26200;-82
2022/03/28 10:28:27;;;;;;;;;;;;;;;15.90;40.83;98680.76;1698201;84;24393;-82
2022/03/28 10:31:10;;;;;;;;;;;;;;;15.92;40.77;98669.59;1693759;84;20254;-82
2022/03/28 10:33:38;;;;;;;;;;;;;;;15.96;40.70;98660.43;1698509;84;24814;-82
2022/03/28 10:36:06;;;;;;;;;;;;;;;15.95;40.59;98662.71;1693421;83;22631;-82
2022/03/28 10:38:32;;;;;;;;;;;;;;;16.01;40.59;98659.53;1693751;83;26123;-82
2022/03/28 10:40:59;;;;;;;;;;;;;;;16.07;40.59;98652.39;1697249;84;24589;-82
2022/03/28 10:43:27;;;;;;;;;;;;;;;16.14;40.63;98645.61;1695327;84;20244;-82
2022/03/28 10:45:56;;;;;;;;;;;;;;;16.26;40.69;98644.48;1691612;84;24203;-82
2022/03/28 10:48:33;;;;;;;;;;;;;;;16.31;40.52;98628.22;1696858;84;22877;-82
2022/03/28 10:51:03;;;;;;;;;;;;;;;16.29;40.26;98641.59;1695542;83;26954;-82
2022/03/28 10:53:33;;;;;;;;;;;;;;;16.32;40.13;98630.73;1703414;83;24640;-82
2022/03/28 10:56:02;;;;;;;;;;;;;;;16.36;40.08;98627.34;1698767;83;20320;-82
2022/03/28 10:58:31;;;;;;;;;;;;;;;16.45;40.04;98624.34;1696597;83;25063;-82
2022/03/28 11:01:13;;;;;;;;;;;;;;;16.45;39.96;98619.06;1699183;83;21965;-82
2022/03/28 11:03:44;;;;;;;;;;;;;;;16.49;39.91;98628.37;1694613;83;25953;-82
2022/03/28 11:06:11;;;;;;;;;;;;;;;16.59;39.95;98622.63;1694869;82;24490;-82
2022/03/28 11:08:39;;;;;;;;;;;;;;;16.67;39.94;98622.77;1640576;84;20265;-82
2022/03/28 11:11:16;;;;;;;;;;;;;;;16.72;39.83;98609.48;1654940;84;24207;-82
2022/03/28 11:13:42;;;;;;;;;;;;;;;16.71;39.55;98606.97;1670326;84;22788;-81
2022/03/28 11:16:21;;;;;;;;;;;;;;;16.71;39.36;98601.69;1657780;84;25964;-82
2022/03/28 11:19:06;;;;;;;;;;;;;;;16.73;39.28;98599.75;1663954;85;25099;-82
2022/03/28 11:21:32;;;;;;;;;;;;;;;16.75;39.17;98599.61;1650809;85;20230;-81
2022/03/28 11:24:01;;;;;;;;;;;;;;;16.83;39.21;98588.66;1644951;85;20431;-82
2022/03/28 11:26:28;;;;;;;;;;;;;;;16.87;39.08;98597.97;1652007;84;22107;-82
2022/03/28 11:28:55;;;;;;;;;;;;;;;16.88;38.93;98594.35;1652943;85;26061;-82
2022/03/28 11:31:20;;;;;;;;;;;;;;;16.94;38.91;98587.17;1650162;85;24539;-82
2022/03/28 11:33:47;;;;;;;;;;;;;;;17.00;38.76;98587.09;1651505;85;20325;-83
2022/03/28 11:36:18;;;;;;;;;;;;;;;17.01;38.71;98586.95;1656066;85;24574;-82
2022/03/28 11:38:49;;;;;;;;;;;;;;;17.08;38.73;98568.19;1657473;85;22101;-82
2022/03/28 11:41:17;;;;;;;;;;;;;;;17.11;38.59;98577.17;1652766;85;26140;-82
2022/03/28 11:43:44;;;;;;;;;;;;;;;17.14;38.56;98566.30;1659956;85;25070;-82
2022/03/28 11:46:12;;;;;;;;;;;;;;;17.17;38.50;98555.93;1655338;85;20202;-83
2022/03/28 11:48:40;;;;;;;;;;;;;;;17.20;38.49;98550.82;1661400;85;25347;-82
2022/03/28 11:51:16;;;;;;;;;;;;;;;17.24;38.41;98549.05;1651400;85;21987;-82
2022/03/28 11:53:45;;;;;;;;;;;;;;;17.25;38.22;98532.70;1657114;85;26064;-83
2022/03/28 11:56:13;;;;;;;;;;;;;;;17.25;37.98;98528.73;1647403;85;20886;-83
2022/03/28 11:58:39;;;;;;;;;;;;;;;17.30;37.91;98529.12;1652727;85;20336;-83
2022/03/28 12:01:09;;;;;;;;;;;;;;;17.36;37.92;98524.56;1659161;85;25399;-82
2022/03/28 12:03:37;;;;;;;;;;;;;;;17.45;37.99;98519.73;1631000;86;21964;-82
2022/03/28 12:06:07;;;;;;;;;;;;;;;17.53;37.94;98517.16;1653687;85;26215;-83
2022/03/28 12:08:33;;;;;;;;;;;;;;;17.48;37.77;98507.03;1652453;85;25271;-82
2022/03/28 12:10:59;;;;;;;;;;;;;;;17.56;37.76;98499.16;1652689;85;20694;-82
2022/03/28 12:13:28;;;;;;;;;;;;;;;17.60;37.62;98501.07;1663238;85;20288;-82
2022/03/28 12:15:54;;;;;;;;;;;;;;;17.61;37.41;98488.67;1653668;85;21560;-82
2022/03/28 12:18:22;;;;;;;;;;;;;;;17.60;37.23;98478.58;1653167;85;26056;-82
2022/03/28 12:20:53;;;;;;;;;;;;;;;17.66;37.23;98474.50;1655771;85;25163;-83
2022/03/28 12:23:20;;;;;;;;;;;;;;;17.72;37.13;98473.41;1661715;85;20376;-83
2022/03/28 12:25:48;;;;;;;;;;;;;;;17.77;37.00;98471.14;1659471;85;24730;-83
2022/03/28 12:28:33;;;;;;;;;;;;;;;17.82;36.96;98456.95;1657274;85;22666;-83
2022/03/28 12:31:00;;;;;;;;;;;;;;;17.86;37.01;98449.04;1658593;85;27669;-83
2022/03/28 12:33:27;;;;;;;;;;;;;;;17.87;36.96;98449.38;1660694;85;24408;-82
2022/03/28 12:35:58;;;;;;;;;;;;;;;17.91;36.87;98443.28;1655620;85;20243;-83
2022/03/28 12:38:26;;;;;;;;;;;;;;;17.97;36.81;98438.21;1660264;85;25495;-84
2022/03/28 12:40:53;;;;;;;;;;;;;;;18.03;36.72;98434.11;1653561;85;21988;-83
2022/03/28 12:43:23;;;;;;;;;;;;;;;18.04;36.68;98425.19;1656648;85;25962;-83
2022/03/28 12:45:47;;;;;;;;;;;;;;;18.02;36.54;98427.15;1660893;85;24528;-82
2022/03/28 12:48:13;;;;;;;;;;;;;;;18.03;36.51;98421.36;1656808;85;20390;-82
2022/03/28 12:50:53;;;;;;;;;;;;;;;18.11;36.58;98421.44;1653836;85;24744;-82
2022/03/28 12:53:21;;;;;;;;;;;;;;;18.19;36.64;98412.20;1652310;85;22024;-82
2022/03/28 12:55:47;;;;;;;;;;;;;;;18.31;36.76;98403.85;1653621;85;26142;-81